createdAt,value
2023-03-17T00:01:56.858Z,6.63
2023-03-17T00:04:26.286Z,5.93
2023-03-17T00:06:54.494Z,4.80
2023-03-17T00:09:22.672Z,4.72
2023-03-17T00:11:50.361Z,7.28
2023-03-17T00:14:18.125Z,5.53
2023-03-17T00:16:50.026Z,4.50
2023-03-17T00:19:33.338Z,5.32
2023-03-17T00:22:03.280Z,4.95
2023-03-17T00:24:31.458Z,4.43
2023-03-17T00:26:58.893Z,5.28
2023-03-17T00:29:26.942Z,5.93
2023-03-17T00:31:57.073Z,4.68
2023-03-17T00:34:23.945Z,6.03
2023-03-17T00:36:52.454Z,4.35
2023-03-17T00:39:19.899Z,5.15
2023-03-17T00:41:50.359Z,4.70
2023-03-17T00:44:17.512Z,4.32
2023-03-17T00:46:44.749Z,4.63
2023-03-17T00:49:23.477Z,5.47
2023-03-17T00:51:51.445Z,5.93
2023-03-17T00:54:21.385Z,3.85
2023-03-17T00:56:50.939Z,6.35
2023-03-17T00:59:37.262Z,7.57
2023-03-17T01:02:04.366Z,5.32
2023-03-17T01:04:31.260Z,5.32
2023-03-17T01:06:59.351Z,5.50
2023-03-17T01:09:28.425Z,5.50
2023-03-17T01:11:57.665Z,5.65
2023-03-17T01:14:24.857Z,5.70
2023-03-17T01:16:55.474Z,7.20
2023-03-17T01:19:23.035Z,6.20
2023-03-17T01:21:50.250Z,5.43
2023-03-17T01:24:17.066Z,6.32
2023-03-17T01:26:44.593Z,5.45
2023-03-17T01:29:12.224Z,7.72
2023-03-17T01:31:39.369Z,7.18
2023-03-17T01:34:06.351Z,4.82
2023-03-17T01:36:34.327Z,5.57
2023-03-17T01:39:01.589Z,6.47
2023-03-17T01:41:28.407Z,4.90
2023-03-17T01:43:55.220Z,7.13
2023-03-17T01:46:29.188Z,6.13
2023-03-17T01:49:06.857Z,5.95
2023-03-17T01:51:52.669Z,4.57
2023-03-17T01:55:11.559Z,4.80
2023-03-17T01:57:51.170Z,7.50
2023-03-17T02:00:24.115Z,4.43
2023-03-17T02:02:56.615Z,7.22
2023-03-17T02:05:33.452Z,4.07
2023-03-17T02:08:14.547Z,4.00
2023-03-17T02:10:43.432Z,3.92
2023-03-17T02:13:14.189Z,4.35
2023-03-17T02:15:51.759Z,6.63
2023-03-17T02:18:23.644Z,6.00
2023-03-17T02:20:56.819Z,5.38
2023-03-17T02:23:24.765Z,3.33
2023-03-17T02:25:54.119Z,7.72
2023-03-17T02:28:30.128Z,3.92
2023-03-17T02:30:57.906Z,3.80
2023-03-17T02:33:24.807Z,3.42
2023-03-17T02:35:55.102Z,3.70
2023-03-17T02:38:22.222Z,7.60
2023-03-17T02:40:49.262Z,4.28
2023-03-17T02:43:16.754Z,4.40
2023-03-17T02:45:43.617Z,4.63
2023-03-17T02:48:12.050Z,4.28
2023-03-17T02:50:39.029Z,4.53
2023-03-17T02:53:06.729Z,4.22
2023-03-17T02:55:33.790Z,4.97
2023-03-17T02:58:03.137Z,4.03
2023-03-17T03:00:30.318Z,4.25
2023-03-17T03:02:57.336Z,4.40
2023-03-17T03:05:24.824Z,3.55
2023-03-17T03:07:52.304Z,4.68
2023-03-17T03:10:19.394Z,3.78
2023-03-17T03:12:47.365Z,4.80
2023-03-17T03:15:14.633Z,3.97
2023-03-17T03:17:42.039Z,4.72
2023-03-17T03:20:11.459Z,6.28
2023-03-17T03:22:38.969Z,6.35
2023-03-17T03:25:08.699Z,4.63
2023-03-17T03:27:36.075Z,4.75
2023-03-17T03:30:04.377Z,5.25
2023-03-17T03:32:31.552Z,4.43
2023-03-17T03:34:58.506Z,3.88
2023-03-17T03:37:26.016Z,4.50
2023-03-17T03:39:53.008Z,4.80
2023-03-17T03:42:19.811Z,5.03
2023-03-17T03:44:46.635Z,5.00
2023-03-17T03:47:13.460Z,4.22
2023-03-17T03:49:40.292Z,5.18
2023-03-17T03:52:07.811Z,4.53
2023-03-17T03:54:35.172Z,4.15
2023-03-17T03:57:03.782Z,4.07
2023-03-17T03:59:30.748Z,4.00
2023-03-17T04:01:57.624Z,4.93
2023-03-17T04:04:24.485Z,6.97
2023-03-17T04:06:51.321Z,4.63
2023-03-17T04:09:18.229Z,5.78
2023-03-17T04:11:45.029Z,4.65
2023-03-17T04:14:11.885Z,6.60
2023-03-17T04:16:38.667Z,7.70
2023-03-17T04:19:05.775Z,4.55
2023-03-17T04:21:33.192Z,5.88
2023-03-17T04:24:05.219Z,5.45
2023-03-17T04:26:32.587Z,4.45
2023-03-17T04:28:59.421Z,4.82
2023-03-17T04:31:26.401Z,4.88
2023-03-17T04:33:53.480Z,7.05
2023-03-17T04:36:23.187Z,4.72
2023-03-17T04:38:50.015Z,6.15
2023-03-17T04:41:16.977Z,5.57
2023-03-17T04:43:43.765Z,4.82
2023-03-17T04:46:10.997Z,5.45
2023-03-17T04:48:38.045Z,5.32
2023-03-17T04:51:05.355Z,7.18
2023-03-17T04:53:32.592Z,4.30
2023-03-17T04:55:59.472Z,4.90
2023-03-17T04:58:30.808Z,4.45
2023-03-17T05:00:58.790Z,5.18
2023-03-17T05:03:27.771Z,6.80
2023-03-17T05:05:55.578Z,5.10
2023-03-17T05:08:22.598Z,6.95
2023-03-17T05:10:49.598Z,7.38
2023-03-17T05:13:16.867Z,7.45
2023-03-17T05:15:52.862Z,6.57
2023-03-17T05:18:21.689Z,4.20
2023-03-17T05:20:48.470Z,7.13
2023-03-17T05:23:15.324Z,5.75
2023-03-17T05:25:42.515Z,5.80
2023-03-17T05:28:10.204Z,5.70
2023-03-17T05:30:37.842Z,5.47
2023-03-17T05:33:06.070Z,5.18
2023-03-17T05:35:33.115Z,6.95
2023-03-17T05:38:00.055Z,5.57
2023-03-17T05:40:27.163Z,6.07
2023-03-17T05:42:54.030Z,5.82
2023-03-17T05:45:20.837Z,5.50
2023-03-17T05:47:47.675Z,5.18
2023-03-17T05:50:14.960Z,4.85
2023-03-17T05:52:41.928Z,6.25
2023-03-17T05:55:09.534Z,6.22
2023-03-17T05:57:36.673Z,6.20
2023-03-17T06:00:05.282Z,6.32
2023-03-17T06:02:32.665Z,7.68
2023-03-17T06:04:59.683Z,7.43
2023-03-17T06:07:28.392Z,6.28
2023-03-17T06:09:58.169Z,6.70
2023-03-17T06:12:25.831Z,5.85
2023-03-17T06:14:52.957Z,4.68
2023-03-17T06:17:22.160Z,4.40
2023-03-17T06:19:49.528Z,7.03
2023-03-17T06:22:16.848Z,4.85
2023-03-17T06:24:43.978Z,4.63
2023-03-17T06:27:11.072Z,5.70
2023-03-17T06:29:38.135Z,5.65
2023-03-17T06:32:19.194Z,6.93
2023-03-17T06:34:47.452Z,7.10
2023-03-17T06:37:14.659Z,5.25
2023-03-17T06:39:42.267Z,6.28
2023-03-17T06:42:09.309Z,5.15
2023-03-17T06:44:37.170Z,6.43
2023-03-17T06:47:04.912Z,5.78
2023-03-17T06:49:32.529Z,5.28
2023-03-17T06:51:59.828Z,7.70
2023-03-17T06:54:26.977Z,6.35
2023-03-17T06:56:53.873Z,6.05
2023-03-17T06:59:22.781Z,4.97
2023-03-17T07:01:50.389Z,5.10
2023-03-17T07:04:17.348Z,7.75
2023-03-17T07:06:44.913Z,5.50
2023-03-17T07:09:11.969Z,5.70
2023-03-17T07:11:39.190Z,6.57
2023-03-17T07:14:06.753Z,8.23
2023-03-17T07:16:33.982Z,7.25
2023-03-17T07:19:02.095Z,7.70
2023-03-17T07:21:29.271Z,7.95
2023-03-17T07:23:56.316Z,8.38
2023-03-17T07:26:23.223Z,4.75
2023-03-17T07:28:50.175Z,8.30
2023-03-17T07:31:17.146Z,7.60
2023-03-17T07:33:44.000Z,6.85
2023-03-17T07:36:11.068Z,6.70
2023-03-17T07:38:38.323Z,7.10
2023-03-17T07:41:09.727Z,8.13
2023-03-17T07:43:38.058Z,7.90
2023-03-17T07:46:06.555Z,11.50
2023-03-17T07:48:34.334Z,7.70
2023-03-17T07:51:01.507Z,5.80
2023-03-17T07:53:28.409Z,5.95
2023-03-17T07:55:55.232Z,6.60
2023-03-17T07:58:22.129Z,6.25
2023-03-17T08:00:49.083Z,6.57
2023-03-17T08:03:15.875Z,8.20
2023-03-17T08:05:42.925Z,5.53
2023-03-17T08:08:10.691Z,10.20
2023-03-17T08:10:37.542Z,5.97
2023-03-17T08:13:04.702Z,8.48
2023-03-17T08:15:31.527Z,6.28
2023-03-17T08:17:58.400Z,9.05
2023-03-17T08:20:25.311Z,8.13
2023-03-17T08:22:52.119Z,7.93
2023-03-17T08:25:18.906Z,9.35
2023-03-17T08:27:45.726Z,9.15
2023-03-17T08:30:13.586Z,9.80
2023-03-17T08:32:41.167Z,7.93
2023-03-17T08:35:11.776Z,9.75
2023-03-17T08:37:38.614Z,7.90
2023-03-17T08:40:06.162Z,7.10
2023-03-17T08:42:32.950Z,10.52
2023-03-17T08:44:59.874Z,7.57
2023-03-17T08:47:27.407Z,8.48
2023-03-17T08:49:56.294Z,7.15
2023-03-17T08:52:23.230Z,9.07
2023-03-17T08:54:50.591Z,9.25
2023-03-17T08:57:18.062Z,8.20
2023-03-17T08:59:47.508Z,6.25
2023-03-17T09:02:15.905Z,7.20
2023-03-17T09:04:42.903Z,10.63
2023-03-17T09:07:10.424Z,7.00
2023-03-17T09:09:38.028Z,8.77
2023-03-17T09:12:07.396Z,9.23
2023-03-17T09:14:43.474Z,8.98
2023-03-17T09:17:13.800Z,6.78
2023-03-17T09:19:41.558Z,6.38
2023-03-17T09:22:13.497Z,7.95
2023-03-17T09:24:40.446Z,10.80
2023-03-17T09:27:07.569Z,6.88
2023-03-17T09:29:34.788Z,7.25
2023-03-17T09:32:01.657Z,5.72
2023-03-17T09:34:28.495Z,5.97
2023-03-17T09:36:55.519Z,8.52
2023-03-17T09:39:24.116Z,9.45
2023-03-17T09:42:19.267Z,5.82
2023-03-17T09:45:27.026Z,8.18
2023-03-17T09:48:02.991Z,10.48
2023-03-17T09:50:53.447Z,8.60
2023-03-17T09:53:35.860Z,6.50
2023-03-17T09:56:13.227Z,10.27
2023-03-17T09:58:55.257Z,9.90
2023-03-17T10:01:23.165Z,9.77
2023-03-17T10:03:50.959Z,7.43
2023-03-17T10:06:38.822Z,9.93
2023-03-17T10:09:20.619Z,9.75
2023-03-17T10:11:54.837Z,10.10
2023-03-17T10:14:38.583Z,7.30
2023-03-17T10:17:19.201Z,9.45
2023-03-17T10:19:58.194Z,8.98
2023-03-17T10:22:38.408Z,5.18
2023-03-17T10:25:15.432Z,6.93
2023-03-17T10:27:51.594Z,9.82
2023-03-17T10:30:22.385Z,9.18
2023-03-17T10:32:52.426Z,9.02
2023-03-17T10:35:22.110Z,6.70
2023-03-17T10:37:49.286Z,10.15
2023-03-17T10:40:28.684Z,8.85
2023-03-17T10:43:08.687Z,7.70
2023-03-17T10:45:46.352Z,11.15
2023-03-17T10:48:20.102Z,8.38
2023-03-17T10:50:49.373Z,8.30
2023-03-17T10:53:29.410Z,8.50
2023-03-17T10:56:09.874Z,8.27
2023-03-17T10:58:53.554Z,7.10
2023-03-17T11:01:29.722Z,8.05
2023-03-17T11:03:57.710Z,8.70
2023-03-17T11:06:43.921Z,9.88
2023-03-17T11:09:18.484Z,9.88
2023-03-17T11:11:49.914Z,9.05
2023-03-17T11:14:19.699Z,11.50
2023-03-17T11:16:54.452Z,9.40
2023-03-17T11:19:52.329Z,7.93
2023-03-17T11:22:40.438Z,7.25
2023-03-17T11:25:19.938Z,9.20
2023-03-17T11:27:56.719Z,9.18
2023-03-17T11:30:43.668Z,7.72
2023-03-17T11:33:41.674Z,8.88
2023-03-17T11:36:36.232Z,9.85
2023-03-17T11:39:35.281Z,10.23
2023-03-17T11:42:15.522Z,9.05
2023-03-17T11:45:11.703Z,7.38
2023-03-17T11:48:11.713Z,16.80
2023-03-17T11:50:48.498Z,12.15
2023-03-17T11:53:21.726Z,9.93
2023-03-17T11:55:57.781Z,10.40
2023-03-17T11:58:39.460Z,8.27
2023-03-17T12:01:12.134Z,7.75
2023-03-17T12:04:09.640Z,8.68
2023-03-17T12:06:50.732Z,7.43
2023-03-17T12:09:30.791Z,8.55
2023-03-17T12:12:01.380Z,9.68
2023-03-17T12:14:52.425Z,9.45
2023-03-17T12:17:39.334Z,7.00
2023-03-17T12:20:28.140Z,8.57
2023-03-17T12:23:06.641Z,8.70
2023-03-17T12:25:57.758Z,6.55
2023-03-17T12:28:38.811Z,8.60
2023-03-17T12:31:17.653Z,9.25
2023-03-17T12:34:07.821Z,9.55
2023-03-17T12:36:38.123Z,7.75
2023-03-17T12:39:19.005Z,7.60
2023-03-17T12:42:25.409Z,8.10
2023-03-17T12:45:14.953Z,9.15
2023-03-17T12:48:00.061Z,7.95
2023-03-17T12:50:49.149Z,9.23
2023-03-17T12:53:30.113Z,9.65
2023-03-17T12:56:28.772Z,8.57
2023-03-17T12:59:05.847Z,8.90
2023-03-17T13:02:13.040Z,10.07
2023-03-17T13:05:00.843Z,10.55
2023-03-17T13:07:54.776Z,8.07
2023-03-17T13:10:39.853Z,9.55
2023-03-17T13:13:13.044Z,8.05
2023-03-17T13:15:40.398Z,8.75
2023-03-17T13:18:29.668Z,8.25
2023-03-17T13:20:56.680Z,9.82
2023-03-17T13:23:46.296Z,9.82
2023-03-17T13:26:20.140Z,9.98
2023-03-17T13:28:51.022Z,8.45
2023-03-17T13:31:27.194Z,9.70
2023-03-17T13:34:03.028Z,8.02
2023-03-17T13:36:59.054Z,8.27
2023-03-17T13:39:46.119Z,8.57
2023-03-17T13:43:15.379Z,9.43
2023-03-17T13:45:44.815Z,11.02
2023-03-17T13:48:38.059Z,9.82
2023-03-17T13:51:08.583Z,10.45
2023-03-17T13:53:41.290Z,8.15
2023-03-17T13:56:22.420Z,11.80
2023-03-17T13:59:05.974Z,9.10
2023-03-17T14:01:42.169Z,8.70
2023-03-17T14:04:44.746Z,8.38
2023-03-17T14:07:20.391Z,10.30
2023-03-17T14:09:48.511Z,9.77
2023-03-17T14:12:29.589Z,7.22
2023-03-17T14:15:12.133Z,11.13
2023-03-17T14:17:48.894Z,10.30
2023-03-17T14:20:15.814Z,10.02
2023-03-17T14:22:47.389Z,8.48
2023-03-17T14:25:24.089Z,10.25
2023-03-17T14:27:57.872Z,10.13
2023-03-17T14:30:34.776Z,8.55
2023-03-17T14:33:13.931Z,10.13
2023-03-17T14:35:43.556Z,11.20
2023-03-17T14:38:25.385Z,8.55
2023-03-17T14:41:15.511Z,11.60
2023-03-17T14:43:44.486Z,10.30
2023-03-17T14:46:26.196Z,9.18
2023-03-17T14:49:21.316Z,11.10
2023-03-17T14:51:57.286Z,10.48
2023-03-17T14:54:31.477Z,10.10
2023-03-17T14:57:07.597Z,9.35
2023-03-17T14:59:38.874Z,10.02
2023-03-17T15:02:28.529Z,10.05
2023-03-17T15:05:26.429Z,8.52
2023-03-17T15:07:53.946Z,12.80
2023-03-17T15:10:25.939Z,9.55
2023-03-17T15:13:06.319Z,6.75
2023-03-17T15:15:37.891Z,7.85
2023-03-17T15:18:13.098Z,9.50
2023-03-17T15:20:44.320Z,8.38
2023-03-17T15:23:25.130Z,10.60
2023-03-17T15:25:57.276Z,10.90
2023-03-17T15:28:31.585Z,9.50
2023-03-17T15:31:13.524Z,10.38
2023-03-17T15:33:42.469Z,9.57
2023-03-17T15:36:31.212Z,6.57
2023-03-17T15:38:58.955Z,9.88
2023-03-17T15:41:26.147Z,9.60
2023-03-17T15:43:53.699Z,12.27
2023-03-17T15:46:27.780Z,9.00
2023-03-17T15:48:55.161Z,9.13
2023-03-17T15:51:22.683Z,6.78
2023-03-17T15:53:49.542Z,10.85
2023-03-17T15:56:20.471Z,9.27
2023-03-17T15:58:52.460Z,10.68
2023-03-17T16:01:20.886Z,9.93
2023-03-17T16:03:48.996Z,13.05
2023-03-17T16:06:24.194Z,11.43
2023-03-17T16:08:51.694Z,15.30
2023-03-17T16:11:30.121Z,11.18
2023-03-17T16:13:59.662Z,10.23
2023-03-17T16:16:37.339Z,8.05
2023-03-17T16:19:20.216Z,10.95
2023-03-17T16:21:47.745Z,8.98
2023-03-17T16:24:22.791Z,17.58
2023-03-17T16:26:50.505Z,11.18
2023-03-17T16:29:19.841Z,12.63
2023-03-17T16:31:50.173Z,10.65
2023-03-17T16:34:23.414Z,9.88
2023-03-17T16:36:50.937Z,13.10
2023-03-17T16:39:19.552Z,17.40
2023-03-17T16:41:48.662Z,13.15
2023-03-17T16:44:20.976Z,12.07
2023-03-17T16:46:48.893Z,9.50
2023-03-17T16:49:20.932Z,13.73
2023-03-17T16:51:49.471Z,12.75
2023-03-17T16:54:17.283Z,10.55
2023-03-17T16:56:44.918Z,11.65
2023-03-17T16:59:20.803Z,11.98
2023-03-17T17:01:47.848Z,9.80
2023-03-17T17:04:14.703Z,13.38
2023-03-17T17:06:41.447Z,13.85
2023-03-17T17:09:08.355Z,16.58
2023-03-17T17:11:35.343Z,10.63
2023-03-17T17:14:02.296Z,12.88
2023-03-17T17:16:34.405Z,7.90
2023-03-17T17:19:03.717Z,10.55
2023-03-17T17:21:31.995Z,9.98
2023-03-17T17:23:58.941Z,8.52
2023-03-17T17:26:25.840Z,9.35
2023-03-17T17:28:52.656Z,11.40
2023-03-17T17:31:19.826Z,4.05
2023-03-17T17:33:46.685Z,4.53
2023-03-17T17:36:16.999Z,13.40
2023-03-17T17:38:44.037Z,3.60
2023-03-17T17:41:13.068Z,4.72
2023-03-17T17:43:41.080Z,4.47
2023-03-17T17:46:20.357Z,3.15
2023-03-17T17:48:47.796Z,4.28
2023-03-17T17:51:14.902Z,5.43
2023-03-17T17:53:41.791Z,3.65
2023-03-17T17:56:15.051Z,5.45
2023-03-17T17:58:42.663Z,3.80
2023-03-17T18:01:12.994Z,3.67
2023-03-17T18:03:42.716Z,4.82
2023-03-17T18:06:10.359Z,6.13
2023-03-17T18:08:37.265Z,8.10
2023-03-17T18:11:04.242Z,8.02
2023-03-17T18:13:31.244Z,7.53
2023-03-17T18:15:58.509Z,3.63
2023-03-17T18:18:25.351Z,6.57
2023-03-17T18:20:53.828Z,4.50
2023-03-17T18:23:21.600Z,5.90
2023-03-17T18:25:49.331Z,7.25
2023-03-17T18:28:17.188Z,4.40
2023-03-17T18:30:45.153Z,8.77
2023-03-17T18:33:19.980Z,7.22
2023-03-17T18:35:52.166Z,6.35
2023-03-17T18:38:19.157Z,5.53
2023-03-17T18:40:46.413Z,5.50
2023-03-17T18:43:13.474Z,7.10
2023-03-17T18:45:40.484Z,6.00
2023-03-17T18:48:07.366Z,6.53
2023-03-17T18:50:34.323Z,5.55
2023-03-17T18:53:01.292Z,5.65
2023-03-17T18:55:28.170Z,7.50
2023-03-17T18:57:55.050Z,4.03
2023-03-17T19:00:25.202Z,7.10
2023-03-17T19:02:52.912Z,5.50
2023-03-17T19:05:20.574Z,6.05
2023-03-17T19:07:47.526Z,8.73
2023-03-17T19:10:15.383Z,6.15
2023-03-17T19:12:44.466Z,4.75
2023-03-17T19:15:12.844Z,8.90
2023-03-17T19:17:40.297Z,5.85
2023-03-17T19:20:08.719Z,7.00
2023-03-17T19:22:35.753Z,8.27
2023-03-17T19:25:04.344Z,7.68
2023-03-17T19:27:31.376Z,7.57
2023-03-17T19:29:58.373Z,7.15
2023-03-17T19:32:25.357Z,8.70
2023-03-17T19:34:52.456Z,8.38
2023-03-17T19:37:19.359Z,3.95
2023-03-17T19:39:46.224Z,5.82
2023-03-17T19:42:13.340Z,7.35
2023-03-17T19:44:40.656Z,4.95
2023-03-17T19:47:08.388Z,9.25
2023-03-17T19:49:37.418Z,5.40
2023-03-17T19:52:06.544Z,6.13
2023-03-17T19:54:34.313Z,5.22
2023-03-17T19:57:01.255Z,5.78
2023-03-17T19:59:28.112Z,8.63
2023-03-17T20:01:55.610Z,6.60
2023-03-17T20:04:23.207Z,5.82
2023-03-17T20:06:55.375Z,5.82
2023-03-17T20:09:25.408Z,8.40
2023-03-17T20:11:54.547Z,5.97
2023-03-17T20:14:21.692Z,7.53
2023-03-17T20:16:49.298Z,5.80
2023-03-17T20:19:16.496Z,8.15
2023-03-17T20:21:43.862Z,9.85
2023-03-17T20:24:12.940Z,6.95
2023-03-17T20:26:40.930Z,9.48
2023-03-17T20:29:08.638Z,6.80
2023-03-17T20:31:37.505Z,5.50
2023-03-17T20:34:05.055Z,7.78
2023-03-17T20:36:31.978Z,4.60
2023-03-17T20:38:59.039Z,6.93
2023-03-17T20:41:25.910Z,6.40
2023-03-17T20:43:53.123Z,5.65
2023-03-17T20:46:24.185Z,7.90
2023-03-17T20:48:58.360Z,8.32
2023-03-17T20:51:27.014Z,8.65
2023-03-17T20:53:55.012Z,8.07
2023-03-17T20:56:24.178Z,5.55
2023-03-17T20:58:53.243Z,6.35
2023-03-17T21:01:21.718Z,7.07
2023-03-17T21:03:50.300Z,7.35
2023-03-17T21:06:18.329Z,9.23
2023-03-17T21:08:46.215Z,4.85
2023-03-17T21:11:19.692Z,4.53
2023-03-17T21:13:47.135Z,4.63
2023-03-17T21:16:27.741Z,7.50
2023-03-17T21:18:54.775Z,7.53
2023-03-17T21:21:22.826Z,6.75
2023-03-17T21:23:49.785Z,6.72
2023-03-17T21:26:17.351Z,10.65
2023-03-17T21:28:44.544Z,11.10
2023-03-17T21:31:13.344Z,6.57
2023-03-17T21:33:40.354Z,9.65
2023-03-17T21:36:07.788Z,6.90
2023-03-17T21:38:34.983Z,12.70
2023-03-17T21:41:33.358Z,9.30
2023-03-17T21:44:02.240Z,8.68
2023-03-17T21:46:29.776Z,8.70
2023-03-17T21:48:56.970Z,13.63
2023-03-17T21:51:25.148Z,11.55
2023-03-17T21:53:53.045Z,10.55
2023-03-17T21:56:20.804Z,8.05
2023-03-17T21:58:49.005Z,10.73
2023-03-17T22:01:18.626Z,9.25
2023-03-17T22:03:45.465Z,12.20
2023-03-17T22:06:13.924Z,11.43
2023-03-17T22:08:41.173Z,7.10
2023-03-17T22:11:13.456Z,9.10
2023-03-17T22:13:41.421Z,9.45
2023-03-17T22:16:10.502Z,13.07
2023-03-17T22:18:38.213Z,8.05
2023-03-17T22:21:08.190Z,9.73
2023-03-17T22:23:41.108Z,8.57
2023-03-17T22:26:12.565Z,8.73
2023-03-17T22:28:40.753Z,11.15
2023-03-17T22:31:23.818Z,13.05
2023-03-17T22:33:55.356Z,9.80
2023-03-17T22:36:24.465Z,15.77
2023-03-17T22:38:51.637Z,12.95
2023-03-17T22:41:24.420Z,13.40
2023-03-17T22:43:51.974Z,12.05
2023-03-17T22:46:20.803Z,16.30
2023-03-17T22:48:48.704Z,12.35
2023-03-17T22:51:20.979Z,16.98
2023-03-17T22:53:49.280Z,15.18
2023-03-17T22:56:18.242Z,15.30
2023-03-17T22:58:46.824Z,14.30
2023-03-17T23:01:16.751Z,12.55
2023-03-17T23:03:45.204Z,11.63
2023-03-17T23:06:13.248Z,11.32
2023-03-17T23:08:42.764Z,13.43
2023-03-17T23:11:21.183Z,18.35
2023-03-17T23:13:49.265Z,13.00
2023-03-17T23:16:17.151Z,15.27
2023-03-17T23:18:46.811Z,17.02
2023-03-17T23:21:36.732Z,13.90
2023-03-17T23:24:05.788Z,18.38
2023-03-17T23:26:35.074Z,15.73
2023-03-17T23:29:03.380Z,15.65
2023-03-17T23:31:30.306Z,13.07
2023-03-17T23:33:57.157Z,15.93
2023-03-17T23:36:24.309Z,16.63
2023-03-17T23:38:52.265Z,14.30
2023-03-17T23:41:19.399Z,15.43
2023-03-17T23:43:46.821Z,18.98
2023-03-17T23:46:14.753Z,13.32
2023-03-17T23:48:42.953Z,13.40
2023-03-17T23:51:12.684Z,15.57
2023-03-17T23:53:39.858Z,17.67
2023-03-17T23:56:08.435Z,14.00
2023-03-17T23:58:36.197Z,16.10
